ADDS METAR Data INFO
IDs: Format: Raw Decoded Include TAF

Data at: 1203 UTC 21 Jun 2018

KSNL 211155Z AUTO 34007KT 10SM CLR 20/17 A2995 RMK AO2 70002 T02030174 10216 20184
KSNL 211135Z AUTO 35005KT 10SM CLR 20/18 A2995 RMK AO2 T02030175
KSNL 211115Z AUTO 34005KT 10SM CLR 20/18 A2994 RMK AO2 T02040177
KSNL 211055Z AUTO 33006KT 10SM CLR 21/19 A2993 RMK AO2 T02100185
KSNL 211035Z AUTO 32010G20KT 10SM SCT018 21/19 A2993 RMK AO2 T02120188
KSNL 211015Z AUTO 25004KT 10SM CLR 21/19 A2990 RMK AO2 T02070186
KSNL 210955Z AUTO 26005KT 10SM CLR 21/19 A2990 RMK AO2 T02050187
KSNL 210935Z AUTO 25003KT 10SM CLR 21/19 A2990 RMK AO2 T02050186
KSNL 210915Z AUTO 26004KT 10SM CLR 21/19 A2989 RMK AO2 T02050186
KSNL 210855Z AUTO 25004KT 10SM CLR 20/18 A2989 RMK AO2 T01980183
KSNL 210835Z AUTO 24004KT 10SM CLR 20/18 A2989 RMK AO2 T01970184
KSNL 210815Z AUTO 21004KT 10SM CLR 19/17 A2989 RMK AO2 T01850173
KSNL 210755Z AUTO 00000KT 10SM CLR 20/18 A2989 RMK AO2 T01990181
KSNL 210735Z AUTO 23004KT 10SM CLR 20/18 A2989 RMK AO2 T02000182
KSNL 210715Z AUTO 22004KT 10SM CLR 19/18 A2990 RMK AO2 T01900177
KSNL 210655Z AUTO 23004KT 10SM CLR 20/18 A2990 RMK AO2 T02000183
KSNL 210635Z AUTO 23003KT 10SM CLR 20/18 A2991 RMK AO2 T02020182
KSNL 210615Z AUTO 24005KT 10SM CLR 20/18 A2991 RMK AO2 T01980181
KSNL 210555Z AUTO 21003KT 10SM CLR 21/19 A2991 RMK AO2 T02080186 10292 20203 403080203
KSNL 210535Z AUTO 19003KT 10SM CLR 21/19 A2991 RMK AO2 T02120186
KSNL 210515Z AUTO 21003KT 10SM CLR 21/18 A2991 RMK AO2 T02080182
KSNL 210455Z AUTO 00000KT 10SM CLR 22/19 A2991 RMK AO2 T02220188
KSNL 210435Z AUTO 00000KT 10SM CLR 22/19 A2991 RMK AO2 T02200187
KSNL 210415Z AUTO 19004KT 10SM CLR 22/19 A2991 RMK AO2 T02170185
KSNL 210355Z AUTO 20003KT 10SM CLR 23/19 A2991 RMK AO2 T02260186
KSNL 210335Z AUTO 21003KT 10SM CLR 22/18 A2991 RMK AO2 T02220184
KSNL 210315Z AUTO 00000KT 10SM CLR 24/19 A2991 RMK AO2 T02370185
KSNL 210255Z AUTO 00000KT 10SM CLR 24/18 A2991 RMK AO2 T02360182
KSNL 210235Z AUTO 00000KT 10SM CLR 24/18 A2990 RMK AO2 T02440183
KSNL 210215Z AUTO 00000KT 10SM CLR 26/18 A2989 RMK AO2 T02590182
KSNL 210155Z AUTO 00000KT 10SM CLR 26/18 A2989 RMK AO2 T02620183
KSNL 210135Z AUTO 00000KT 10SM CLR 27/18 A2989 RMK AO2 T02670184
KSNL 210115Z AUTO 00000KT 10SM CLR 27/19 A2988 RMK AO2 T02730186
KSNL 210055Z AUTO 02004KT 10SM CLR 28/18 A2987 RMK AO2 T02820181
KSNL 210035Z AUTO 03005KT 10SM CLR 29/18 A2987 RMK AO2 T02870183
KSNL 210015Z AUTO 03007KT 10SM CLR 29/18 A2986 RMK AO2 T02900182
KSNL 202355Z AUTO 01007KT 10SM CLR 29/18 A2985 RMK AO2 T02920180 10308 20278
KSNL 202335Z AUTO 36008KT 10SM CLR 30/18 A2985 RMK AO2 T02950180
KSNL 202315Z AUTO 34007KT 10SM SCT050 30/18 A2985 RMK AO2 T02970183
KSNL 202255Z AUTO 34008KT 10SM SCT048 30/19 A2985 RMK AO2 T02990186
KSNL 202235Z AUTO 34006KT 10SM SCT046 30/19 A2985 RMK AO2 T02980186
KSNL 202215Z AUTO 36006KT 10SM SCT044 SCT050 30/20 A2985 RMK AO2 T02990195
KSNL 202155Z AUTO 32007KT 10SM SCT046 SCT050 31/19 A2985 RMK AO2 T03060194
KSNL 202135Z AUTO 31007KT 10SM CLR 30/18 A2985 RMK AO2 T03010181
KSNL 202115Z AUTO 36006KT 10SM SCT037 30/20 A2985 RMK AO2 T03010199
KSNL 202055Z AUTO 34007KT 10SM SCT035 29/20 A2985 RMK AO2 T02920200
KSNL 202035Z AUTO 35007KT 10SM SCT035 29/20 A2986 RMK AO2 LTG DSNT E T02930198
KSNL 202015Z AUTO 35005G14KT 10SM SCT033 30/20 A2986 RMK AO2 T02950203
KSNL 201955Z AUTO 35008G15KT 10SM SCT031 28/20 A2987 RMK AO2 LTG DSNT E T02810202
KSNL 201935Z AUTO 34009KT 10SM CLR 28/20 A2987 RMK AO2 T02840195
KSNL 201915Z AUTO 36008KT 10SM CLR 29/19 A2989 RMK AO2 T02860190
KSNL 201855Z AUTO 32006KT 10SM SCT031 28/20 A2989 RMK AO2 T02820204
KSNL 201835Z AUTO 00000KT 10SM CLR 28/20 A2989 RMK AO2 T02830201
KSNL 201815Z AUTO 00000KT 10SM CLR 28/21 A2989 RMK AO2 T02800205
KSNL 201755Z AUTO 00000KT 10SM CLR 28/20 A2989 RMK AO2 60002 T02780204 10279 20215
KSNL 201735Z AUTO 25003KT 10SM CLR 27/21 A2989 RMK AO2 T02740205
KSNL 201715Z AUTO 18005KT 10SM CLR 27/21 A2987 RMK AO2 T02730206
KSNL 201655Z AUTO 23006KT 10SM CLR 28/22 A2988 RMK AO2 T02780216
KSNL 201635Z AUTO 18008KT 10SM CLR 27/21 A2987 RMK AO2 T02660209
KSNL 201615Z AUTO 20005KT 10SM CLR 26/21 A2989 RMK AO2 T02620208
KSNL 201555Z AUTO 22004KT 10SM SCT014 BKN090 25/21 A2991 RMK AO2 T02510207
KSNL 201535Z AUTO 22004KT 10SM BKN012 OVC080 25/21 A2991 RMK AO2 T02450209
KSNL 201515Z AUTO 25006KT 10SM OVC012 24/22 A2992 RMK AO2 T02430216
KSNL 201455Z AUTO 26006KT 10SM SCT010 BKN027 OVC080 24/22 A2994 RMK AO2 P0001 60002 T02370216
KSNL 201435Z AUTO 23005KT 5SM -RA SCT008 BKN017 OVC033 23/21 A2994 RMK AO2 P0001 T02250211
KSNL 201415Z AUTO 25005KT 10SM OVC022 23/21 A2994 RMK AO2 T02250206
KSNL 201355Z AUTO 24005KT 10SM SCT026 SCT032 OVC055 23/21 A2994 RMK AO2 T02270207
KSNL 201335Z AUTO 20005KT 10SM OVC055 23/21 A2994 RMK AO2 T02250205
KSNL 201315Z AUTO 21004KT 7SM -DZ SCT047 OVC055 22/20 A2994 RMK AO2 T02200204
KSNL 201255Z AUTO 19005KT 5SM -RA SCT024 BKN047 OVC055 22/20 A2994 RMK AO2 P0001 T02190202
KSNL 201235Z AUTO 18003KT 10SM BKN026 OVC049 22/20 A2994 RMK AO2 T02170201
KSNL 201215Z AUTO 00000KT 7SM -DZ SCT028 BKN047 OVC060 22/20 A2994 RMK AO2 T02150201
KSNL 201155Z AUTO 00000KT 7SM RA SCT026 BKN031 OVC045 22/20 A2994 RMK AO2 T02160197 10228 20208
KSNL 201135Z AUTO 00000KT 10SM OVC026 22/19 A2994 RMK AO2 T02150194
KSNL 201115Z AUTO 00000KT 10SM BKN026 OVC055 22/19 A2993 RMK AO2 T02150194
KSNL 201055Z AUTO 00000KT 10SM OVC055 21/20 A2993 RMK AO2 T02130195
KSNL 201035Z AUTO 00000KT 10SM OVC055 21/19 A2992 RMK AO2 T02120193
KSNL 201015Z AUTO 00000KT 10SM OVC055 22/19 A2992 RMK AO2 T02150192
KSNL 200955Z AUTO 00000KT 10SM BKN055 21/19 A2992 RMK AO2 T02130188
KSNL 200935Z AUTO 00000KT 10SM CLR 21/19 A2991 RMK AO2 T02120188
KSNL 200915Z AUTO 16004KT 10SM CLR 21/19 A2990 RMK AO2 T02110189
KSNL 200855Z AUTO 17005KT 10SM CLR 21/19 A2990 RMK AO2 T02120190
KSNL 200835Z AUTO 19005KT 10SM CLR 22/19 A2990 RMK AO2 T02150190
KSNL 200815Z AUTO 18006KT 10SM CLR 22/19 A2990 RMK AO2 T02200190
KSNL 200755Z AUTO 17008KT 10SM CLR 22/19 A2989 RMK AO2 T02220191
KSNL 200735Z AUTO 16009KT 10SM CLR 23/19 A2989 RMK AO2 T02250192
KSNL 200715Z AUTO 17007KT 10SM CLR 22/19 A2989 RMK AO2 T02210193
KSNL 200655Z AUTO 17006KT 10SM CLR 22/20 A2989 RMK AO2 T02230195
KSNL 200635Z AUTO 17007KT 10SM CLR 23/20 A2989 RMK AO2 T02250195
KSNL 200615Z AUTO 18005KT 10SM CLR 23/20 A2990 RMK AO2 T02280196
KSNL 200555Z AUTO 17007KT 10SM CLR 23/20 A2991 RMK AO2 T02280196 10280 20226 402930213
KSNL 200535Z AUTO 18007KT 10SM CLR 23/20 A2991 RMK AO2 T02260197
KSNL 200515Z AUTO 20006KT 10SM CLR 23/20 A2992 RMK AO2 T02290197
KSNL 200455Z AUTO 18006KT 10SM CLR 24/20 A2992 RMK AO2 T02350200
KSNL 200435Z AUTO 18006KT 10SM CLR 24/20 A2991 RMK AO2 T02380200
KSNL 200415Z AUTO 18007KT 10SM CLR 24/20 A2992 RMK AO2 T02400202
KSNL 200355Z AUTO 17008KT 10SM CLR 24/20 A2991 RMK AO2 T02410203
KSNL 200335Z AUTO 16009KT 10SM CLR 24/21 A2991 RMK AO2 T02440205
KSNL 200315Z AUTO 17007KT 10SM CLR 24/21 A2991 RMK AO2 T02430205
KSNL 200255Z AUTO 17006KT 10SM CLR 25/20 A2991 RMK AO2 T02470203
KSNL 200235Z AUTO 17007KT 10SM CLR 25/20 A2990 RMK AO2 T02520203
KSNL 200215Z AUTO 16008KT 10SM CLR 26/20 A2989 RMK AO2 T02550204
KSNL 200155Z AUTO 16009KT 10SM CLR 26/21 A2989 RMK AO2 T02580206
KSNL 200135Z AUTO 17010KT 10SM CLR 26/21 A2989 RMK AO2 T02620210
KSNL 200115Z AUTO 15009KT 10SM CLR 27/21 A2989 RMK AO2 T02670210
KSNL 200055Z AUTO 14011KT 10SM CLR 27/21 A2989 RMK AO2 T02720207
KSNL 200035Z AUTO 16010KT 10SM CLR 28/21 A2990 RMK AO2 T02770210
KSNL 200015Z AUTO 14009KT 10SM CLR 28/21 A2990 RMK AO2 T02800214